Hauptseite
METAR-TAF:

METAR-TAF

Flughäfen :

RAF Wittering

Wittering, England

Breite: 52-37N, Länge: 000-28W, Höhe: 84 m

Beobachtung

Neuester Wetterbericht von vor 1 Stunde und 16 Minuten, um 19:50 UTC
Wind 8 kt aus West/Südwest
Temperatur 3°C
Luftfeuchtigkeit 93%
Luftdruck 1000 hPa
Sichtweite 10 km oder mehr

METAR: EGXT 161950Z AUTO 24008KT 9999 NCD 03/02 Q1000

Zeit: 21:06 (21:06 UTC)

Prognose

Neuester Wetterbericht von vor 7 Stunden und 46 Minuten, um 13:20 UTC
Gültige Prognose vom 16 um 15 UTC bis 16 um 18 UTC
Wind 12 kt aus Nordwest
Sichtweite: 6000 m
Durchbrochene Bewölkung in der Höhe von 800 ft
Geschlossene Wolkendecke in der Höhe von 2200 ft
Regen
Übergehend zu
vom 16 um 15 UTC bis 16 um 17 UTC
Sichtweite 10 km oder mehr
Geschlossene Wolkendecke in der Höhe von 4000 ft

TAF: EGXT 161320Z 1615/1618 31012KT 6000 RA BKN008 OVC022 BECMG 1615/1617 9999 NSW OVC040

Wetterbeobachtungen und Prognosen von mehr als 4000 Flughäfen (METAR und TAF Bericht).

Die verfügbaren Stationen werden durch gelbe und rote Markierungen auf der Karte dargestellt.

Führen Sie die Maus auf sie, um den Namen der Station zu sehen.

Darauf klicken, um die Beobachtung von Wetterbeobachtungen und Prognosen zu sehen.

Um die Karte zu ändern : klicken Sie auf den grünen Tasten mit einem schwarzen Kreuz Zum Vergrößern, auf den grünen Button mit einem Gedankenstrich zu verkleinern, oder auf die grünen Pfeile für benachbarte Karten.


METAR-TAF: